General Servando Canales International Airport
MMMA : now visible

Airfield :











YOU CAN JOIN US ON...

 
LOGIN :

Register | Disclaimer

   EN    FR    IT 

 









Legend :    VFR   Marginal VFR   IFR   Intensive IFR   Very Intensive IFR
Visi :
Ceiling :
>= 8 km
>= 3000ft
5 to 8 km
1000 to 3000 ft
1500m to 5 km
500 to 1000 ft
800 to 1500m
200 to 500 ft
< 800m
< 200 ft
Symbols :   Thunderstorms  Fog  Heavy snow  Heavy precipitations  Wind > 20 kt






- Airport Elevation : 25 ft
- IATA code : MAM


MMMA - General Servando Canales International

CURRENT METAR :
  • 141645Z 19005KT 8SM FEW020 30/24 A2997 RMK 8/100 ISOL CI

EXPIRED METARs :
  • 141543Z 17006KT 8SM SKC 28/24 A2999 RMK ISOL CI
  • 141443Z 22004KT 8SM SKC 25/23 A2998 RMK SLP153 52008 951 ISOL CI

TAF TAF MMMA
Valid from the 14 at 18:00 until the 15 at 18:00 UTC


141630Z 1418/1518 15006KT P6SM SCT020
BECMG 1420/1421 13015KT BKN020
FM150100 13012KT P6SM SCT020
BECMG 1505/1506 13010KT
FM151000 15010KT 6SM HZ BKN020



MET'MAP, your aeronautical weather chart ! - Copyright ORBIFLY December 2007 - Disclaimer

ORBIFLY MET'MAP TEAM :

Programming & Development : Alexandra Zaïnal
Concept & Development : Baudouin d'Aumeries
Co-Development & Prog : Marc-Olivier Méhu
Technical & hardware support : Manuel Goepfert

Contact : metmap@orbifly.com




SOURCES & CREDITS :

   NOAA       Earth
Advisory